createdAt,value
2018-01-27T00:00:24.408Z,5.20
2018-01-27T00:02:52.759Z,5.10
2018-01-27T00:05:20.323Z,5.10
2018-01-27T00:07:47.831Z,5.10
2018-01-27T00:10:15.389Z,5.10
2018-01-27T00:12:42.932Z,5.00
2018-01-27T00:15:10.467Z,5.00
2018-01-27T00:17:38.431Z,4.90
2018-01-27T00:20:06.734Z,4.80
2018-01-27T00:22:45.956Z,4.80
2018-01-27T00:25:13.491Z,4.80
2018-01-27T00:27:41.078Z,4.80
2018-01-27T00:30:09.362Z,4.70
2018-01-27T00:32:37.769Z,4.70
2018-01-27T00:35:05.339Z,4.60
2018-01-27T00:37:32.836Z,4.60
2018-01-27T00:40:00.371Z,4.60
2018-01-27T00:42:27.904Z,4.50
2018-01-27T00:44:56.198Z,4.40
2018-01-27T00:47:24.559Z,4.40
2018-01-27T00:49:52.857Z,4.40
2018-01-27T00:52:21.261Z,4.30
2018-01-27T00:54:48.777Z,4.30
2018-01-27T00:57:16.311Z,4.30
2018-01-27T00:59:43.854Z,4.20
2018-01-27T01:02:11.389Z,4.10
2018-01-27T01:04:39.681Z,4.00
2018-01-27T01:07:07.971Z,4.00
2018-01-27T01:09:36.259Z,3.90
2018-01-27T01:12:03.817Z,3.90
2018-01-27T01:14:31.348Z,3.80
2018-01-27T01:16:58.964Z,3.80
2018-01-27T01:19:26.477Z,3.70
2018-01-27T01:21:54.062Z,3.70
2018-01-27T01:24:22.376Z,3.60
2018-01-27T01:26:49.967Z,3.60
2018-01-27T01:29:17.612Z,3.50
2018-01-27T01:31:45.203Z,3.50
2018-01-27T01:34:13.491Z,3.40
2018-01-27T01:36:41.068Z,3.40
2018-01-27T01:39:09.498Z,3.50
2018-01-27T01:41:37.023Z,3.40
2018-01-27T01:44:10.268Z,3.30
2018-01-27T01:46:37.773Z,3.30
2018-01-27T01:49:17.979Z,3.40
2018-01-27T01:51:45.501Z,3.30
2018-01-27T01:54:13.040Z,3.30
2018-01-27T01:56:40.581Z,3.20
2018-01-27T01:59:08.116Z,3.20
2018-01-27T02:01:36.417Z,3.30
2018-01-27T02:04:03.937Z,3.30
2018-01-27T02:06:31.461Z,3.40
2018-01-27T02:08:58.992Z,3.40
2018-01-27T02:11:26.511Z,3.30
2018-01-27T02:13:54.081Z,3.40
2018-01-27T02:16:21.636Z,3.30
2018-01-27T02:18:49.197Z,3.30
2018-01-27T02:21:16.747Z,3.30
2018-01-27T02:23:44.252Z,3.30
2018-01-27T02:26:11.793Z,3.40
2018-01-27T02:28:39.320Z,3.40
2018-01-27T02:31:08.922Z,3.50
2018-01-27T02:33:37.041Z,3.50
2018-01-27T02:36:04.661Z,3.50
2018-01-27T02:38:32.192Z,3.60
2018-01-27T02:40:59.727Z,3.50
2018-01-27T02:43:27.248Z,3.50
2018-01-27T02:45:54.788Z,3.40
2018-01-27T02:48:22.653Z,3.40
2018-01-27T02:50:51.733Z,3.40
2018-01-27T02:53:19.254Z,3.30
2018-01-27T02:55:46.823Z,3.20
2018-01-27T02:58:15.145Z,3.10
2018-01-27T03:00:42.664Z,3.10
2018-01-27T03:03:10.183Z,3.10
2018-01-27T03:05:37.717Z,3.10
2018-01-27T03:08:06.072Z,3.00
2018-01-27T03:10:33.618Z,3.00
2018-01-27T03:13:02.891Z,3.00
2018-01-27T03:15:30.407Z,3.00
2018-01-27T03:17:58.128Z,2.90
2018-01-27T03:20:25.660Z,2.80
2018-01-27T03:22:53.972Z,2.80
2018-01-27T03:25:21.495Z,2.80
2018-01-27T03:27:49.019Z,2.70
2018-01-27T03:30:16.538Z,2.70
2018-01-27T03:32:44.835Z,2.60
2018-01-27T03:35:13.171Z,2.50
2018-01-27T03:37:40.671Z,2.50
2018-01-27T03:40:08.968Z,2.50
2018-01-27T03:42:36.626Z,2.50
2018-01-27T03:45:05.334Z,2.60
2018-01-27T03:47:32.899Z,2.50
2018-01-27T03:50:01.921Z,2.60
2018-01-27T03:52:29.454Z,2.50
2018-01-27T03:54:56.988Z,2.50
2018-01-27T03:57:24.512Z,2.50
2018-01-27T03:59:52.056Z,2.50
2018-01-27T04:02:19.585Z,2.50
2018-01-27T04:04:47.107Z,2.40
2018-01-27T04:07:14.620Z,2.40
2018-01-27T04:09:42.913Z,2.30
2018-01-27T04:12:11.531Z,2.20
2018-01-27T04:14:39.058Z,2.30
2018-01-27T04:17:06.582Z,2.20
2018-01-27T04:19:34.110Z,2.20
2018-01-27T04:22:01.643Z,2.20
2018-01-27T04:24:29.434Z,2.20
2018-01-27T04:26:57.723Z,2.20
2018-01-27T04:29:25.252Z,2.20
2018-01-27T04:31:52.784Z,2.10
2018-01-27T04:34:21.381Z,2.10
2018-01-27T04:36:48.929Z,2.10
2018-01-27T04:39:16.523Z,2.00
2018-01-27T04:41:44.879Z,2.00
2018-01-27T04:44:12.412Z,2.00
2018-01-27T04:46:40.691Z,1.90
2018-01-27T04:49:09.099Z,1.90
2018-01-27T04:51:36.724Z,1.90
2018-01-27T04:54:04.273Z,1.90
2018-01-27T04:56:31.879Z,1.90
2018-01-27T04:59:00.196Z,1.80
2018-01-27T05:01:27.848Z,1.80
2018-01-27T05:03:55.343Z,1.70
2018-01-27T05:06:22.872Z,1.70
2018-01-27T05:08:50.482Z,1.70
2018-01-27T05:11:18.025Z,1.70
2018-01-27T05:13:45.622Z,1.70
2018-01-27T05:16:13.144Z,1.70
2018-01-27T05:18:40.679Z,1.70
2018-01-27T05:21:08.984Z,1.70
2018-01-27T05:23:36.516Z,1.70
2018-01-27T05:26:04.383Z,1.70
2018-01-27T05:28:31.919Z,1.70
2018-01-27T05:30:59.443Z,1.60
2018-01-27T05:33:26.969Z,1.50
2018-01-27T05:35:54.505Z,1.50
2018-01-27T05:38:22.320Z,1.50
2018-01-27T05:40:50.623Z,1.50
2018-01-27T05:43:18.179Z,1.50
2018-01-27T05:45:46.486Z,1.40
2018-01-27T05:48:14.030Z,1.40
2018-01-27T05:50:42.344Z,1.30
2018-01-27T05:53:09.910Z,1.30
2018-01-27T05:55:38.343Z,1.30
2018-01-27T05:58:05.883Z,1.30
2018-01-27T06:00:33.412Z,1.30
2018-01-27T06:03:00.959Z,1.20
2018-01-27T06:05:29.259Z,1.20
2018-01-27T06:07:56.780Z,1.10
2018-01-27T06:10:24.407Z,1.20
2018-01-27T06:12:51.941Z,1.10
2018-01-27T06:15:19.528Z,1.20
2018-01-27T06:17:47.044Z,1.10
2018-01-27T06:20:15.001Z,1.10
2018-01-27T06:22:42.628Z,1.20
2018-01-27T06:25:10.208Z,1.20
2018-01-27T06:27:37.761Z,1.20
2018-01-27T06:30:05.327Z,1.20
2018-01-27T06:32:32.859Z,1.20
2018-01-27T06:35:00.404Z,1.20
2018-01-27T06:37:27.950Z,1.10
2018-01-27T06:39:55.456Z,1.20
2018-01-27T06:42:23.747Z,1.10
2018-01-27T06:44:52.048Z,1.10
2018-01-27T06:47:19.576Z,1.10
2018-01-27T06:49:47.937Z,1.10
2018-01-27T06:52:15.460Z,1.10
2018-01-27T06:54:42.988Z,1.10
2018-01-27T06:57:10.587Z,1.10
2018-01-27T06:59:38.120Z,1.10
2018-01-27T07:02:05.655Z,1.10
2018-01-27T07:04:33.188Z,1.10
2018-01-27T07:07:00.730Z,1.10
2018-01-27T07:09:29.032Z,1.10
2018-01-27T07:11:56.593Z,1.10
2018-01-27T07:14:24.124Z,1.10
2018-01-27T07:16:51.650Z,1.00
2018-01-27T07:19:19.191Z,1.00
2018-01-27T07:21:46.717Z,1.00
2018-01-27T07:24:14.268Z,1.10
2018-01-27T07:26:42.557Z,1.10
2018-01-27T07:29:10.084Z,1.10
2018-01-27T07:31:37.604Z,1.10
2018-01-27T07:34:05.905Z,1.20
2018-01-27T07:36:33.456Z,1.20
2018-01-27T07:39:01.751Z,1.20
2018-01-27T07:41:29.273Z,1.20
2018-01-27T07:43:56.809Z,1.30
2018-01-27T07:46:24.336Z,1.30
2018-01-27T07:48:52.636Z,1.20
2018-01-27T07:51:20.160Z,1.20
2018-01-27T07:53:48.096Z,1.20
2018-01-27T07:56:15.643Z,1.20
2018-01-27T07:58:43.156Z,1.20
2018-01-27T08:01:10.727Z,1.20
2018-01-27T08:03:38.339Z,1.20
2018-01-27T08:06:05.876Z,1.20
2018-01-27T08:08:34.245Z,1.30
2018-01-27T08:11:01.753Z,1.30
2018-01-27T08:13:29.289Z,1.30
2018-01-27T08:15:57.590Z,1.40
2018-01-27T08:18:25.885Z,1.50
2018-01-27T08:20:53.415Z,1.50
2018-01-27T08:23:21.714Z,1.70
2018-01-27T08:25:50.034Z,1.70
2018-01-27T08:28:17.577Z,1.70
2018-01-27T08:30:45.268Z,1.80
2018-01-27T08:33:12.798Z,1.80
2018-01-27T08:35:42.012Z,1.90
2018-01-27T08:38:09.590Z,1.90
2018-01-27T08:40:37.235Z,1.90
2018-01-27T08:43:04.773Z,1.90
2018-01-27T08:45:32.380Z,2.00
2018-01-27T08:47:59.904Z,2.00
2018-01-27T08:50:27.529Z,2.10
2018-01-27T08:52:55.091Z,2.00
2018-01-27T08:55:22.625Z,2.00
2018-01-27T08:57:50.189Z,2.20
2018-01-27T09:00:17.736Z,2.20
2018-01-27T09:02:46.128Z,2.40
2018-01-27T09:05:14.431Z,2.40
2018-01-27T09:07:41.942Z,2.40
2018-01-27T09:10:09.496Z,2.60
2018-01-27T09:12:37.134Z,2.70
2018-01-27T09:15:04.741Z,2.70
2018-01-27T09:17:33.238Z,2.80
2018-01-27T09:20:00.807Z,2.90
2018-01-27T09:22:28.338Z,2.90
2018-01-27T09:24:55.872Z,2.80
2018-01-27T09:27:23.411Z,2.80
2018-01-27T09:29:50.952Z,3.00
2018-01-27T09:32:18.476Z,2.90
2018-01-27T09:34:46.633Z,2.90
2018-01-27T09:37:14.935Z,3.00
2018-01-27T09:39:42.460Z,2.90
2018-01-27T09:42:09.993Z,3.10
2018-01-27T09:44:38.300Z,3.10
2018-01-27T09:47:05.880Z,3.10
2018-01-27T09:49:33.401Z,3.10
2018-01-27T09:52:00.923Z,3.80
2018-01-27T09:54:29.228Z,3.20
2018-01-27T09:56:56.771Z,3.20
2018-01-27T09:59:25.112Z,3.40
2018-01-27T10:01:52.644Z,3.40
2018-01-27T10:04:20.180Z,3.40
2018-01-27T10:06:48.501Z,3.50
2018-01-27T10:09:16.072Z,3.50
2018-01-27T10:11:43.620Z,3.60
2018-01-27T10:14:11.155Z,3.70
2018-01-27T10:16:38.806Z,3.80
2018-01-27T10:19:06.339Z,3.90
2018-01-27T10:21:33.873Z,4.00
2018-01-27T10:24:01.416Z,4.20
2018-01-27T10:26:29.933Z,4.50
2018-01-27T10:28:57.453Z,4.50
2018-01-27T10:31:24.996Z,4.60
2018-01-27T10:33:52.596Z,4.60
2018-01-27T10:36:20.998Z,4.80
2018-01-27T10:38:49.288Z,4.80
2018-01-27T10:41:16.820Z,4.70
2018-01-27T10:43:44.347Z,4.80
2018-01-27T10:46:11.889Z,4.90
2018-01-27T10:48:39.485Z,5.00
2018-01-27T10:51:07.737Z,5.20
2018-01-27T10:53:35.259Z,5.20
2018-01-27T10:56:03.548Z,5.30
2018-01-27T10:58:31.877Z,5.50
2018-01-27T11:00:59.444Z,5.50
2018-01-27T11:03:26.994Z,5.60
2018-01-27T11:05:54.523Z,5.70
2018-01-27T11:08:22.831Z,5.90
2018-01-27T11:10:50.376Z,5.80
2018-01-27T11:13:18.704Z,5.90
2018-01-27T11:15:46.259Z,5.90
2018-01-27T11:18:13.776Z,5.80
2018-01-27T11:20:41.351Z,5.90
2018-01-27T11:23:10.428Z,6.00
2018-01-27T11:25:38.106Z,6.00
2018-01-27T11:28:05.648Z,6.00
2018-01-27T11:30:34.755Z,6.00
2018-01-27T11:33:02.342Z,6.00
2018-01-27T11:35:29.963Z,6.00
2018-01-27T11:37:57.525Z,6.00
2018-01-27T11:40:25.140Z,6.00
2018-01-27T11:42:52.750Z,6.10
2018-01-27T11:45:20.277Z,6.10
2018-01-27T11:47:47.816Z,6.10
2018-01-27T11:50:15.379Z,6.10
2018-01-27T11:52:42.929Z,6.20
2018-01-27T11:55:10.466Z,6.40
2018-01-27T11:57:38.016Z,6.20
2018-01-27T12:00:06.311Z,6.30
2018-01-27T12:02:33.859Z,6.40
2018-01-27T12:05:02.172Z,6.70
2018-01-27T12:07:29.705Z,6.70
2018-01-27T12:09:58.001Z,6.90
2018-01-27T12:12:26.318Z,7.00
2018-01-27T12:14:53.872Z,7.00
2018-01-27T12:17:21.392Z,7.00
2018-01-27T12:19:48.925Z,6.90
2018-01-27T12:22:16.465Z,6.70
2018-01-27T12:24:44.217Z,6.80
2018-01-27T12:27:12.500Z,6.80
2018-01-27T12:29:40.041Z,6.80
2018-01-27T12:32:07.584Z,6.90
2018-01-27T12:34:35.174Z,7.00
2018-01-27T12:37:02.738Z,7.10
2018-01-27T12:39:30.256Z,7.10
2018-01-27T12:41:57.907Z,7.10
2018-01-27T12:44:25.439Z,7.20
2018-01-27T12:46:53.755Z,7.00
2018-01-27T12:49:21.305Z,7.00
2018-01-27T12:51:49.597Z,7.00
2018-01-27T12:54:17.252Z,7.00
2018-01-27T12:56:45.624Z,6.90
2018-01-27T12:59:13.946Z,7.00
2018-01-27T13:01:41.496Z,7.00
2018-01-27T13:04:09.008Z,7.00
2018-01-27T13:06:36.549Z,7.00
2018-01-27T13:09:04.069Z,7.10
2018-01-27T13:11:32.387Z,7.00
2018-01-27T13:14:00.048Z,7.10
2018-01-27T13:16:27.560Z,7.00
2018-01-27T13:18:55.092Z,7.00
2018-01-27T13:21:22.629Z,7.00
2018-01-27T13:23:50.272Z,7.00
2018-01-27T13:26:17.825Z,7.10
2018-01-27T13:28:45.365Z,7.20
2018-01-27T13:31:12.894Z,7.10
2018-01-27T13:33:40.440Z,7.30
2018-01-27T13:36:08.777Z,7.10
2018-01-27T13:38:36.309Z,7.10
2018-01-27T13:41:04.504Z,7.10
2018-01-27T13:43:32.059Z,7.10
2018-01-27T13:45:59.638Z,7.10
2018-01-27T13:48:27.195Z,6.90
2018-01-27T13:50:54.723Z,6.90
2018-01-27T13:53:23.028Z,6.90
2018-01-27T13:55:50.706Z,6.90
2018-01-27T13:58:18.245Z,6.90
2018-01-27T14:00:46.578Z,6.90
2018-01-27T14:03:14.108Z,6.90
2018-01-27T14:05:41.713Z,6.70
2018-01-27T14:08:09.352Z,6.70
2018-01-27T14:10:37.673Z,6.70
2018-01-27T14:13:05.238Z,6.60
2018-01-27T14:15:33.656Z,6.70
2018-01-27T14:18:01.950Z,6.70
2018-01-27T14:20:29.488Z,6.70
2018-01-27T14:22:57.141Z,6.70
2018-01-27T14:25:24.696Z,6.60
2018-01-27T14:27:52.997Z,6.70
2018-01-27T14:30:20.630Z,6.70
2018-01-27T14:32:48.192Z,6.70
2018-01-27T14:35:15.793Z,6.60
2018-01-27T14:37:43.416Z,6.50
2018-01-27T14:40:10.973Z,6.50
2018-01-27T14:42:38.553Z,6.40
2018-01-27T14:45:06.102Z,6.40
2018-01-27T14:47:33.643Z,6.40
2018-01-27T14:50:01.970Z,6.40
2018-01-27T14:52:29.634Z,6.90
2018-01-27T14:54:57.192Z,6.40
2018-01-27T14:57:24.725Z,6.40
2018-01-27T14:59:53.187Z,6.40
2018-01-27T15:02:20.732Z,6.40
2018-01-27T15:04:48.273Z,6.40
2018-01-27T15:07:15.840Z,6.30
2018-01-27T15:09:43.414Z,6.30
2018-01-27T15:12:10.977Z,6.30
2018-01-27T15:14:38.522Z,6.40
2018-01-27T15:17:06.068Z,6.40
2018-01-27T15:19:34.425Z,6.30
2018-01-27T15:22:01.964Z,6.30
2018-01-27T15:24:29.494Z,6.20
2018-01-27T15:26:57.075Z,6.20
2018-01-27T15:29:24.613Z,6.20
2018-01-27T15:31:52.916Z,6.20
2018-01-27T15:34:20.491Z,6.10
2018-01-27T15:36:48.034Z,6.10
2018-01-27T15:39:16.342Z,6.10
2018-01-27T15:41:44.385Z,6.10
2018-01-27T15:44:12.689Z,6.10
2018-01-27T15:46:40.255Z,6.10
2018-01-27T15:49:08.000Z,6.10
2018-01-27T15:51:36.994Z,6.00
2018-01-27T15:54:04.604Z,6.00
2018-01-27T15:56:32.133Z,6.00
2018-01-27T15:59:00.481Z,6.00
2018-01-27T16:01:28.024Z,5.90
2018-01-27T16:03:55.576Z,5.90
2018-01-27T16:06:23.143Z,5.90
2018-01-27T16:11:31.801Z,5.90
2018-01-27T16:14:00.587Z,5.90
2018-01-27T16:16:28.113Z,5.90
2018-01-27T16:18:55.688Z,5.90
2018-01-27T16:21:23.220Z,5.80
2018-01-27T16:23:51.212Z,5.80
2018-01-27T16:26:18.740Z,5.80
2018-01-27T16:28:46.277Z,5.80
2018-01-27T16:31:13.815Z,5.80
2018-01-27T16:33:42.129Z,5.80
2018-01-27T16:36:09.693Z,5.80
2018-01-27T16:38:37.376Z,5.90
2018-01-27T16:41:04.910Z,5.80
2018-01-27T16:43:32.935Z,5.80
2018-01-27T16:46:00.705Z,5.90
2018-01-27T16:48:28.267Z,5.80
2018-01-27T16:50:55.821Z,5.90
2018-01-27T16:53:23.979Z,5.90
2018-01-27T16:55:51.543Z,5.80
2018-01-27T16:58:19.109Z,5.90
2018-01-27T17:00:46.713Z,5.90
2018-01-27T17:03:14.253Z,5.80
2018-01-27T17:05:41.777Z,5.80
2018-01-27T17:08:09.324Z,5.80
2018-01-27T17:10:36.872Z,5.80
2018-01-27T17:13:04.427Z,5.90
2018-01-27T17:15:31.981Z,5.90
2018-01-27T17:17:59.540Z,5.90
2018-01-27T17:20:27.183Z,5.90
2018-01-27T17:22:55.697Z,5.90
2018-01-27T17:25:23.260Z,5.90
2018-01-27T17:27:50.803Z,5.90
2018-01-27T17:30:18.393Z,5.80
2018-01-27T17:32:46.054Z,5.80
2018-01-27T17:35:13.585Z,5.80
2018-01-27T17:37:41.897Z,5.80
2018-01-27T17:40:09.432Z,5.80
2018-01-27T17:42:37.769Z,5.80
2018-01-27T17:45:05.307Z,5.80
2018-01-27T17:47:32.839Z,5.90
2018-01-27T17:50:01.164Z,5.80
2018-01-27T17:52:28.717Z,5.90
2018-01-27T17:54:56.340Z,5.90
2018-01-27T17:57:23.872Z,5.90
2018-01-27T17:59:51.409Z,5.90
2018-01-27T18:02:18.972Z,5.90
2018-01-27T18:04:46.515Z,5.90
2018-01-27T18:07:14.831Z,5.80
2018-01-27T18:09:42.359Z,5.80
2018-01-27T18:12:10.664Z,5.80
2018-01-27T18:14:38.218Z,5.80
2018-01-27T18:17:06.532Z,5.80
2018-01-27T18:19:34.056Z,5.80
2018-01-27T18:22:02.365Z,5.70
2018-01-27T18:24:29.890Z,5.70
2018-01-27T18:26:57.458Z,5.70
2018-01-27T18:29:24.989Z,5.70
2018-01-27T18:31:52.966Z,5.70
2018-01-27T18:34:21.430Z,5.70
2018-01-27T18:36:48.956Z,5.70
2018-01-27T18:39:16.561Z,5.70
2018-01-27T18:41:45.008Z,5.70
2018-01-27T18:44:13.333Z,5.70
2018-01-27T18:46:42.063Z,5.70
2018-01-27T18:49:10.381Z,5.80
2018-01-27T18:51:38.690Z,5.70
2018-01-27T18:54:06.341Z,5.70
2018-01-27T18:56:33.872Z,5.70
2018-01-27T18:59:01.427Z,5.70
2018-01-27T19:01:28.964Z,5.60
2018-01-27T19:03:56.519Z,5.70
2018-01-27T19:06:24.047Z,5.70
2018-01-27T19:08:52.346Z,5.60
2018-01-27T19:11:19.912Z,5.60
2018-01-27T19:13:47.471Z,5.60
2018-01-27T19:16:15.780Z,5.50
2018-01-27T19:18:44.199Z,5.50
2018-01-27T19:21:11.715Z,5.50
2018-01-27T19:23:39.261Z,5.40
2018-01-27T19:26:07.572Z,5.40
2018-01-27T19:28:35.074Z,5.40
2018-01-27T19:31:02.605Z,5.50
2018-01-27T19:33:30.142Z,5.40
2018-01-27T19:35:58.493Z,5.40
2018-01-27T19:38:26.032Z,5.40
2018-01-27T19:40:53.661Z,5.40
2018-01-27T19:43:22.704Z,5.40
2018-01-27T19:45:50.400Z,5.40
2018-01-27T19:48:18.105Z,5.50
2018-01-27T19:50:46.425Z,5.40
2018-01-27T19:53:13.966Z,5.40
2018-01-27T19:55:41.558Z,5.40
2018-01-27T19:58:09.866Z,5.40
2018-01-27T20:00:37.437Z,5.40
2018-01-27T20:03:05.046Z,5.50
2018-01-27T20:05:32.668Z,5.40
2018-01-27T20:08:00.289Z,5.40
2018-01-27T20:10:28.725Z,5.30
2018-01-27T20:12:56.304Z,5.30
2018-01-27T20:15:24.615Z,5.30
2018-01-27T20:17:52.230Z,5.30
2018-01-27T20:20:19.818Z,5.20
2018-01-27T20:22:48.120Z,5.10
2018-01-27T20:25:15.687Z,5.10
2018-01-27T20:27:43.234Z,5.20
2018-01-27T20:30:12.186Z,5.00
2018-01-27T20:32:40.493Z,5.00
2018-01-27T20:35:08.051Z,5.00
2018-01-27T20:37:35.629Z,5.00
2018-01-27T20:40:03.176Z,4.90
2018-01-27T20:42:30.796Z,4.90
2018-01-27T20:44:58.326Z,4.80
2018-01-27T20:47:25.862Z,4.80
2018-01-27T20:52:27.287Z,4.70
2018-01-27T20:54:55.599Z,4.70
2018-01-27T20:57:23.154Z,4.60
2018-01-27T20:59:50.689Z,4.70
2018-01-27T21:02:19.005Z,4.60
2018-01-27T21:04:46.561Z,4.50
2018-01-27T21:07:14.877Z,4.60
2018-01-27T21:09:42.417Z,4.60
2018-01-27T21:12:09.972Z,4.60
2018-01-27T21:14:37.513Z,4.70
2018-01-27T21:17:05.077Z,4.60
2018-01-27T21:19:32.628Z,4.60
2018-01-27T21:22:00.178Z,4.70
2018-01-27T21:24:27.718Z,4.70
2018-01-27T21:26:56.173Z,4.60
2018-01-27T21:29:24.499Z,4.60
2018-01-27T21:31:52.049Z,4.60
2018-01-27T21:34:19.644Z,4.60
2018-01-27T21:36:47.409Z,4.70
2018-01-27T21:39:14.937Z,4.60
2018-01-27T21:41:43.284Z,4.60
2018-01-27T21:44:11.956Z,4.60
2018-01-27T21:46:40.333Z,4.60
2018-01-27T21:49:09.557Z,4.60
2018-01-27T21:51:37.171Z,4.70
2018-01-27T21:54:04.693Z,4.70
2018-01-27T21:56:32.280Z,4.70
2018-01-27T21:59:00.693Z,4.80
2018-01-27T22:01:28.697Z,4.80
2018-01-27T22:03:56.264Z,4.90
2018-01-27T22:06:23.814Z,4.90
2018-01-27T22:08:51.349Z,4.90
2018-01-27T22:11:18.908Z,4.90
2018-01-27T22:13:47.250Z,5.00
2018-01-27T22:16:16.307Z,4.90
2018-01-27T22:18:43.865Z,4.90
2018-01-27T22:21:12.154Z,4.90
2018-01-27T22:23:39.733Z,4.90
2018-01-27T22:26:08.236Z,5.00
2018-01-27T22:28:35.816Z,5.00
2018-01-27T22:31:03.345Z,5.00
2018-01-27T22:33:31.353Z,5.10
2018-01-27T22:35:59.642Z,5.00
2018-01-27T22:38:28.052Z,5.00
2018-01-27T22:40:56.387Z,5.00
2018-01-27T22:43:23.928Z,4.90
2018-01-27T22:45:52.399Z,5.00
2018-01-27T22:48:20.696Z,5.00
2018-01-27T22:50:48.195Z,5.00
2018-01-27T22:53:15.787Z,4.90
2018-01-27T22:55:44.222Z,5.00
2018-01-27T22:58:12.086Z,5.00
2018-01-27T23:00:40.765Z,4.90
2018-01-27T23:03:09.069Z,5.00
2018-01-27T23:05:36.635Z,5.00
2018-01-27T23:08:04.190Z,5.00
2018-01-27T23:10:31.849Z,4.90
2018-01-27T23:12:59.384Z,4.90
2018-01-27T23:15:26.917Z,4.90
2018-01-27T23:17:54.698Z,5.00
2018-01-27T23:20:22.222Z,4.90
2018-01-27T23:22:49.754Z,5.00
2018-01-27T23:25:18.784Z,5.00
2018-01-27T23:27:46.288Z,5.00
2018-01-27T23:30:13.821Z,5.00
2018-01-27T23:32:41.392Z,4.90
2018-01-27T23:35:10.298Z,5.00
2018-01-27T23:37:38.119Z,5.00
2018-01-27T23:40:06.413Z,4.90
2018-01-27T23:42:34.763Z,4.90
2018-01-27T23:45:02.352Z,4.90
2018-01-27T23:47:30.633Z,4.90
2018-01-27T23:49:59.812Z,4.90
2018-01-27T23:52:27.356Z,4.90
2018-01-27T23:54:54.933Z,4.80
2018-01-27T23:57:22.464Z,4.90
2018-01-27T23:59:51.155Z,4.90
